createdAt,value
2018-01-18T00:01:59.690Z,99318.30
2018-01-18T00:04:27.166Z,99319.78
2018-01-18T00:06:54.619Z,99321.83
2018-01-18T00:09:22.090Z,99319.78
2018-01-18T00:11:49.549Z,99319.46
2018-01-18T00:14:17.021Z,99311.11
2018-01-18T00:16:44.478Z,99307.39
2018-01-18T00:19:11.950Z,99301.25
2018-01-18T00:21:39.394Z,99304.70
2018-01-18T00:24:06.864Z,99300.50
2018-01-18T00:26:34.315Z,99301.02
2018-01-18T00:29:01.796Z,99303.72
2018-01-18T00:31:29.246Z,99294.08
2018-01-18T00:33:56.714Z,99291.57
2018-01-18T00:36:24.174Z,99281.46
2018-01-18T00:38:51.641Z,99271.81
2018-01-18T00:41:19.097Z,99262.72
2018-01-18T00:43:46.561Z,99260.41
2018-01-18T00:46:14.011Z,99248.29
2018-01-18T00:48:41.488Z,99247.47
2018-01-18T00:51:08.930Z,99227.66
2018-01-18T00:53:36.406Z,99221.42
2018-01-18T00:56:03.849Z,99221.13
2018-01-18T00:58:31.319Z,99218.84
2018-01-18T01:00:58.798Z,99210.47
2018-01-18T01:03:26.264Z,99198.80
2018-01-18T01:05:53.720Z,99193.61
2018-01-18T01:08:21.198Z,99191.09
2018-01-18T01:10:48.647Z,99188.95
2018-01-18T01:13:16.106Z,99183.45
2018-01-18T01:15:43.576Z,99183.17
2018-01-18T01:18:11.052Z,99174.83
2018-01-18T01:20:38.518Z,99171.97
2018-01-18T01:23:05.978Z,99163.61
2018-01-18T01:25:33.444Z,99155.92
2018-01-18T01:28:00.896Z,99146.77
2018-01-18T01:30:28.367Z,99143.59
2018-01-18T01:32:55.811Z,99132.94
2018-01-18T01:35:23.288Z,99121.56
2018-01-18T01:37:50.739Z,99126.84
2018-01-18T01:40:18.226Z,99125.41
2018-01-18T01:42:45.671Z,99122.78
2018-01-18T01:45:13.142Z,99124.02
2018-01-18T01:47:40.595Z,99107.02
2018-01-18T01:50:08.067Z,99092.25
2018-01-18T01:52:35.527Z,99097.47
2018-01-18T01:55:03.089Z,99086.16
2018-01-18T01:57:30.530Z,99063.94
2018-01-18T01:59:58.003Z,99042.86
2018-01-18T02:02:25.463Z,99031.68
2018-01-18T02:04:52.939Z,99029.92
2018-01-18T02:07:20.390Z,99026.92
2018-01-18T02:09:47.862Z,99027.30
2018-01-18T02:12:15.318Z,99041.39
2018-01-18T02:14:42.790Z,99034.52
2018-01-18T02:17:10.230Z,99040.82
2018-01-18T02:19:37.696Z,99027.55
2018-01-18T02:22:05.143Z,99020.98
2018-01-18T02:24:32.614Z,99004.88
2018-01-18T02:27:00.111Z,98979.52
2018-01-18T02:29:27.575Z,98978.19
2018-01-18T02:31:55.018Z,98979.84
2018-01-18T02:34:22.491Z,98990.68
2018-01-18T02:36:49.955Z,98975.70
2018-01-18T02:39:17.411Z,98964.09
2018-01-18T02:41:44.895Z,98953.77
2018-01-18T02:44:12.350Z,98950.81
2018-01-18T02:46:39.819Z,98932.66
2018-01-18T02:49:07.311Z,98913.80
2018-01-18T02:51:34.791Z,98908.04
2018-01-18T02:54:02.254Z,98900.48
2018-01-18T02:56:29.732Z,98878.33
2018-01-18T02:58:57.178Z,98882.02
2018-01-18T03:01:24.642Z,98863.34
2018-01-18T03:03:52.094Z,98854.95
2018-01-18T03:06:19.566Z,98840.51
2018-01-18T03:08:47.103Z,98826.66
2018-01-18T03:11:14.570Z,98816.70
2018-01-18T03:13:42.018Z,98800.66
2018-01-18T03:16:09.494Z,98783.53
2018-01-18T03:18:36.938Z,98766.63
2018-01-18T03:21:04.405Z,98752.68
2018-01-18T03:23:31.850Z,98741.67
2018-01-18T03:25:59.322Z,98724.97
2018-01-18T03:28:26.778Z,98708.48
2018-01-18T03:30:54.244Z,98699.67
2018-01-18T03:33:21.702Z,98690.09
2018-01-18T03:35:49.179Z,98676.93
2018-01-18T03:38:16.632Z,98671.61
2018-01-18T03:40:44.111Z,98650.16
2018-01-18T03:43:11.558Z,98639.41
2018-01-18T03:45:39.033Z,98626.37
2018-01-18T03:48:06.493Z,98604.36
2018-01-18T03:50:33.959Z,98590.73
2018-01-18T03:53:01.450Z,98584.02
2018-01-18T03:55:28.923Z,98554.31
2018-01-18T03:57:56.402Z,98539.81
2018-01-18T04:00:23.851Z,98536.92
2018-01-18T04:02:51.326Z,98522.19
2018-01-18T04:05:18.775Z,98500.01
2018-01-18T04:07:46.250Z,98491.58
2018-01-18T04:10:13.702Z,98480.22
2018-01-18T04:12:41.174Z,98471.84
2018-01-18T04:15:08.626Z,98455.48
2018-01-18T04:17:36.103Z,98433.25
2018-01-18T04:20:03.556Z,98437.28
2018-01-18T04:22:31.025Z,98401.53
2018-01-18T04:24:58.480Z,98396.95
2018-01-18T04:27:25.953Z,98380.73
2018-01-18T04:29:53.408Z,98367.53
2018-01-18T04:32:20.875Z,98349.55
2018-01-18T04:34:48.326Z,98328.64
2018-01-18T04:37:15.799Z,98331.73
2018-01-18T04:39:43.251Z,98313.61
2018-01-18T04:42:10.724Z,98303.34
2018-01-18T04:44:38.171Z,98307.53
2018-01-18T04:47:05.723Z,98310.08
2018-01-18T04:49:33.176Z,98286.87
2018-01-18T04:52:00.647Z,98264.73
2018-01-18T04:54:28.110Z,98263.56
2018-01-18T04:56:55.585Z,98257.84
2018-01-18T04:59:23.038Z,98222.91
2018-01-18T05:01:50.515Z,98234.77
2018-01-18T05:04:17.987Z,98205.48
2018-01-18T05:06:45.470Z,98231.00
2018-01-18T05:09:12.934Z,98204.81
2018-01-18T05:11:40.407Z,98202.92
2018-01-18T05:14:07.861Z,98186.38
2018-01-18T05:16:35.334Z,98177.25
2018-01-18T05:19:02.782Z,98181.55
2018-01-18T05:21:30.244Z,98168.77
2018-01-18T05:23:57.722Z,98159.38
2018-01-18T05:26:25.174Z,98142.98
2018-01-18T05:28:52.642Z,98150.12
2018-01-18T05:31:20.095Z,98128.61
2018-01-18T05:33:47.558Z,98131.03
2018-01-18T05:36:15.013Z,98116.38
2018-01-18T05:38:42.478Z,98129.70
2018-01-18T05:41:10.882Z,98117.58
2018-01-18T05:43:38.343Z,98106.83
2018-01-18T05:46:05.795Z,98097.80
2018-01-18T05:48:33.267Z,98096.87
2018-01-18T05:51:00.715Z,98078.86
2018-01-18T05:53:28.194Z,98077.35
2018-01-18T05:55:55.661Z,98066.35
2018-01-18T05:58:23.141Z,98056.70
2018-01-18T06:00:50.590Z,98046.59
2018-01-18T06:03:18.056Z,98025.20
2018-01-18T06:05:45.499Z,98029.93
2018-01-18T06:08:12.974Z,98029.88
2018-01-18T06:10:40.429Z,98030.95
2018-01-18T06:13:07.894Z,98022.45
2018-01-18T06:15:35.343Z,98012.58
2018-01-18T06:18:02.820Z,98007.30
2018-01-18T06:20:30.267Z,97992.38
2018-01-18T06:22:57.753Z,97969.47
2018-01-18T06:25:25.215Z,97956.76
2018-01-18T06:27:52.699Z,97986.38
2018-01-18T06:30:20.155Z,97985.85
2018-01-18T06:32:47.622Z,97965.91
2018-01-18T06:35:15.153Z,97968.20
2018-01-18T06:37:42.621Z,97944.33
2018-01-18T06:40:10.075Z,97941.52
2018-01-18T06:45:11.264Z,97937.85
2018-01-18T06:47:38.738Z,97927.15
2018-01-18T06:50:06.193Z,97932.76
2018-01-18T06:52:33.641Z,97918.04
2018-01-18T06:55:01.107Z,97914.46
2018-01-18T06:57:28.565Z,97900.86
2018-01-18T06:59:56.042Z,97907.73
2018-01-18T07:02:23.494Z,97906.36
2018-01-18T07:04:50.968Z,97893.58
2018-01-18T07:07:18.418Z,97898.74
2018-01-18T07:09:45.894Z,97881.33
2018-01-18T07:12:13.350Z,97871.14
2018-01-18T07:14:40.814Z,97899.85
2018-01-18T07:17:08.258Z,97875.59
2018-01-18T07:19:35.747Z,97861.87
2018-01-18T07:22:03.202Z,97868.33
2018-01-18T07:24:30.687Z,97865.88
2018-01-18T07:26:58.138Z,97869.20
2018-01-18T07:29:25.617Z,97877.34
2018-01-18T07:31:53.075Z,97858.70
2018-01-18T07:34:20.600Z,97874.98
2018-01-18T07:36:48.014Z,97869.08
2018-01-18T07:39:15.479Z,97855.64
2018-01-18T07:41:43.030Z,97844.80
2018-01-18T07:44:10.498Z,97864.50
2018-01-18T07:46:37.954Z,97839.98
2018-01-18T07:49:05.436Z,97843.05
2018-01-18T07:51:32.891Z,97835.22
2018-01-18T07:54:00.500Z,97823.13
2018-01-18T07:56:27.950Z,97823.04
2018-01-18T07:58:55.477Z,97831.27
2018-01-18T08:01:22.930Z,97822.45
2018-01-18T08:03:56.082Z,97822.56
2018-01-18T08:06:23.542Z,97825.87
2018-01-18T08:08:51.012Z,97817.30
2018-01-18T08:11:18.462Z,97802.48
2018-01-18T08:13:45.919Z,97802.70
2018-01-18T08:16:13.399Z,97804.14
2018-01-18T08:18:40.868Z,97812.92
2018-01-18T08:21:08.350Z,97780.42
2018-01-18T08:23:35.806Z,97768.78
2018-01-18T08:26:03.275Z,97776.13
2018-01-18T08:28:30.731Z,97783.55
2018-01-18T08:30:58.207Z,97787.98
2018-01-18T08:33:25.672Z,97775.39
2018-01-18T08:35:53.170Z,97781.64
2018-01-18T08:38:20.636Z,97771.41
2018-01-18T08:40:48.126Z,97699.19
2018-01-18T08:43:16.183Z,97788.16
2018-01-18T08:45:43.675Z,97794.84
2018-01-18T08:48:11.131Z,97751.83
2018-01-18T08:50:38.617Z,97800.77
2018-01-18T08:53:06.075Z,97793.28
2018-01-18T08:55:33.550Z,97805.42
2018-01-18T08:58:01.010Z,97784.70
2018-01-18T09:00:28.486Z,97785.84
2018-01-18T09:02:55.946Z,97794.94
2018-01-18T09:05:23.434Z,97732.79
2018-01-18T09:07:50.890Z,97771.67
2018-01-18T09:10:18.371Z,97769.29
2018-01-18T09:12:45.828Z,97780.28
2018-01-18T09:15:13.319Z,97727.95
2018-01-18T09:17:40.787Z,97755.48
2018-01-18T09:20:08.267Z,97703.56
2018-01-18T09:22:35.722Z,97709.88
2018-01-18T09:25:03.211Z,97759.75
2018-01-18T09:27:30.683Z,97759.02
2018-01-18T09:29:58.175Z,97747.32
2018-01-18T09:32:25.639Z,97750.59
2018-01-18T09:34:53.133Z,97778.98
2018-01-18T09:37:20.597Z,97725.75
2018-01-18T09:39:48.059Z,97763.68
2018-01-18T09:42:15.551Z,97601.76
2018-01-18T09:44:43.015Z,97771.83
2018-01-18T09:47:10.498Z,97672.98
2018-01-18T09:49:37.975Z,97769.17
2018-01-18T09:52:05.462Z,97801.61
2018-01-18T09:54:32.926Z,97774.62
2018-01-18T09:57:00.406Z,97825.91
2018-01-18T09:59:27.882Z,97816.59
2018-01-18T10:01:55.351Z,97769.80
2018-01-18T10:04:22.807Z,97837.02
2018-01-18T10:06:50.295Z,97791.51
2018-01-18T10:09:17.774Z,97836.66
2018-01-18T10:11:45.260Z,97882.80
2018-01-18T10:14:12.730Z,97915.57
2018-01-18T10:16:40.208Z,97890.92
2018-01-18T10:19:07.694Z,97939.05
2018-01-18T10:21:36.099Z,97924.78
2018-01-18T10:24:03.558Z,97939.39
2018-01-18T10:26:31.046Z,97986.83
2018-01-18T10:28:58.515Z,97949.84
2018-01-18T10:31:26.027Z,97991.58
2018-01-18T10:33:53.667Z,97984.33
2018-01-18T10:36:21.150Z,97918.39
2018-01-18T10:38:48.610Z,97973.98
2018-01-18T10:41:16.094Z,97960.08
2018-01-18T10:43:43.550Z,97918.93
2018-01-18T10:46:11.031Z,97987.86
2018-01-18T10:48:40.458Z,98055.26
2018-01-18T10:51:07.942Z,98079.16
2018-01-18T10:53:35.417Z,98037.00
2018-01-18T10:56:02.913Z,98043.11
2018-01-18T10:58:30.384Z,98072.97
2018-01-18T11:00:57.867Z,98084.08
2018-01-18T11:03:25.350Z,98013.34
2018-01-18T11:05:52.811Z,98101.78
2018-01-18T11:08:20.299Z,98046.84
2018-01-18T11:10:47.755Z,98105.88
2018-01-18T11:13:15.248Z,98140.55
2018-01-18T11:15:42.715Z,98212.83
2018-01-18T11:18:10.187Z,98183.77
2018-01-18T11:20:37.640Z,98159.36
2018-01-18T11:23:05.130Z,98229.22
2018-01-18T11:25:32.587Z,98241.30
2018-01-18T11:28:00.142Z,98155.33
2018-01-18T11:30:27.591Z,98231.91
2018-01-18T11:32:55.066Z,98277.23
2018-01-18T11:35:23.292Z,98256.57
2018-01-18T11:37:50.771Z,98279.02
2018-01-18T11:40:18.223Z,98235.75
2018-01-18T11:42:45.694Z,98265.92
2018-01-18T11:45:13.156Z,98224.10
2018-01-18T11:47:40.644Z,98276.17
2018-01-18T11:50:08.142Z,98308.58
2018-01-18T11:52:35.629Z,98308.52
2018-01-18T11:55:03.084Z,98321.80
2018-01-18T11:57:30.559Z,98352.20
2018-01-18T11:59:58.035Z,98279.86
2018-01-18T12:02:25.523Z,98360.80
2018-01-18T12:04:52.981Z,98353.43
2018-01-18T12:07:20.466Z,98348.34
2018-01-18T12:09:47.922Z,98367.78
2018-01-18T12:12:15.419Z,98363.34
2018-01-18T12:14:42.880Z,98383.63
2018-01-18T12:17:10.360Z,98396.73
2018-01-18T12:19:37.823Z,98405.11
2018-01-18T12:22:05.317Z,98403.74
2018-01-18T12:24:32.791Z,98410.59
2018-01-18T12:27:00.278Z,98424.70
2018-01-18T12:29:27.735Z,98417.14
2018-01-18T12:31:55.191Z,98452.86
2018-01-18T12:34:22.661Z,98435.46
2018-01-18T12:36:50.134Z,98455.95
2018-01-18T12:39:17.623Z,98435.16
2018-01-18T12:41:45.084Z,98466.31
2018-01-18T12:44:12.558Z,98475.20
2018-01-18T12:46:40.019Z,98473.62
2018-01-18T12:49:07.491Z,98484.70
2018-01-18T12:51:34.942Z,98502.42
2018-01-18T12:54:02.422Z,98485.54
2018-01-18T12:56:29.870Z,98501.86
2018-01-18T12:58:57.411Z,98499.86
2018-01-18T13:01:24.863Z,98507.84
2018-01-18T13:03:52.352Z,98535.28
2018-01-18T13:06:19.808Z,98535.58
2018-01-18T13:08:47.301Z,98539.09
2018-01-18T13:11:14.883Z,98548.83
2018-01-18T13:13:42.377Z,98549.64
2018-01-18T13:16:10.597Z,98544.20
2018-01-18T13:18:38.148Z,98568.31
2018-01-18T13:21:05.687Z,98551.81
2018-01-18T13:23:33.274Z,98513.47
2018-01-18T13:26:00.754Z,98575.28
2018-01-18T13:28:28.243Z,98547.03
2018-01-18T13:30:55.706Z,98571.69
2018-01-18T13:33:23.327Z,98584.25
2018-01-18T13:35:50.871Z,98595.55
2018-01-18T13:38:18.406Z,98574.05
2018-01-18T13:40:45.880Z,98574.05
2018-01-18T13:43:13.492Z,98588.16
2018-01-18T13:45:41.016Z,98567.98
2018-01-18T13:48:09.046Z,98583.84
2018-01-18T13:50:36.516Z,98578.41
2018-01-18T13:53:03.999Z,98580.57
2018-01-18T13:55:31.465Z,98594.23
2018-01-18T13:57:58.918Z,98608.28
2018-01-18T14:00:26.386Z,98611.97
2018-01-18T14:02:53.840Z,98618.34
2018-01-18T14:05:21.326Z,98613.91
2018-01-18T14:07:48.925Z,98616.48
2018-01-18T14:10:16.438Z,98609.73
2018-01-18T14:12:43.888Z,98626.57
2018-01-18T14:15:11.361Z,98625.50
2018-01-18T14:17:38.816Z,98631.86
2018-01-18T14:20:06.299Z,98600.96
2018-01-18T14:22:33.752Z,98631.44
2018-01-18T14:25:01.263Z,98644.64
2018-01-18T14:27:28.787Z,98639.09
2018-01-18T14:29:56.282Z,98643.13
2018-01-18T14:32:23.738Z,98658.23
2018-01-18T14:34:51.218Z,98667.83
2018-01-18T14:37:18.671Z,98664.61
2018-01-18T14:39:46.152Z,98666.90
2018-01-18T14:42:13.610Z,98663.66
2018-01-18T14:44:41.083Z,98663.80
2018-01-18T14:47:08.540Z,98672.15
2018-01-18T14:49:36.007Z,98673.91
2018-01-18T14:52:03.459Z,98676.19
2018-01-18T14:54:30.941Z,98689.25
2018-01-18T14:56:58.402Z,98698.95
2018-01-18T14:59:25.885Z,98679.63
2018-01-18T15:01:53.347Z,98696.20
2018-01-18T15:04:20.810Z,98708.73
2018-01-18T15:06:48.310Z,98713.70
2018-01-18T15:09:15.787Z,98715.98
2018-01-18T15:11:43.242Z,98710.45
2018-01-18T15:14:10.715Z,98712.71
2018-01-18T15:16:38.191Z,98704.36
2018-01-18T15:19:05.659Z,98710.82
2018-01-18T15:21:33.127Z,98713.23
2018-01-18T15:24:00.574Z,98719.95
2018-01-18T15:26:28.057Z,98724.97
2018-01-18T15:28:55.507Z,98722.82
2018-01-18T15:31:23.050Z,98732.80
2018-01-18T15:33:50.511Z,98719.61
2018-01-18T15:36:17.978Z,98746.39
2018-01-18T15:38:45.435Z,98747.03
2018-01-18T15:41:12.907Z,98746.73
2018-01-18T15:43:40.432Z,98745.23
2018-01-18T15:46:07.908Z,98737.39
2018-01-18T15:48:35.362Z,98745.95
2018-01-18T15:51:02.888Z,98751.59
2018-01-18T15:53:32.511Z,98755.73
2018-01-18T15:55:59.983Z,98765.69
2018-01-18T15:58:27.442Z,98763.38
2018-01-18T16:00:54.906Z,98765.12
2018-01-18T16:03:22.353Z,98770.91
2018-01-18T16:05:50.055Z,98769.02
2018-01-18T16:08:17.750Z,98770.73
2018-01-18T16:10:45.234Z,98776.23
2018-01-18T16:13:12.686Z,98777.34
2018-01-18T16:15:40.215Z,98779.78
2018-01-18T16:18:07.670Z,98773.26
2018-01-18T16:20:35.164Z,98778.39
2018-01-18T16:23:02.656Z,98790.58
2018-01-18T16:25:30.143Z,98782.00
2018-01-18T16:27:57.597Z,98783.63
2018-01-18T16:30:25.075Z,98784.13
2018-01-18T16:32:52.534Z,98787.85
2018-01-18T16:35:20.003Z,98792.88
2018-01-18T16:37:47.463Z,98787.76
2018-01-18T16:40:14.939Z,98791.27
2018-01-18T16:42:42.394Z,98785.07
2018-01-18T16:45:09.853Z,98788.05
2018-01-18T16:47:37.378Z,98786.84
2018-01-18T16:50:04.831Z,98792.28
2018-01-18T16:52:32.311Z,98790.09
2018-01-18T16:54:59.766Z,98785.23
2018-01-18T16:57:27.287Z,98790.05
2018-01-18T16:59:54.712Z,98787.56
2018-01-18T17:02:22.204Z,98789.69
2018-01-18T17:04:49.654Z,98789.25
2018-01-18T17:07:17.121Z,98789.69
2018-01-18T17:09:44.574Z,98795.09
2018-01-18T17:12:12.082Z,98794.38
2018-01-18T17:14:39.520Z,98793.38
2018-01-18T17:17:06.990Z,98776.31
2018-01-18T17:19:34.447Z,98786.71
2018-01-18T17:22:01.940Z,98787.88
2018-01-18T17:24:29.409Z,98792.84
2018-01-18T17:26:56.883Z,98803.41
2018-01-18T17:29:24.326Z,98805.91
2018-01-18T17:31:51.797Z,98805.13
2018-01-18T17:34:19.270Z,98801.07
2018-01-18T17:36:46.741Z,98804.38
2018-01-18T17:39:14.199Z,98805.58
2018-01-18T17:41:41.684Z,98797.22
2018-01-18T17:44:09.142Z,98801.92
2018-01-18T17:46:36.615Z,98805.80
2018-01-18T17:49:04.075Z,98803.08
2018-01-18T17:51:31.536Z,98801.73
2018-01-18T17:53:58.987Z,98796.63
2018-01-18T17:56:26.459Z,98799.95
2018-01-18T17:58:53.918Z,98807.37
2018-01-18T18:01:21.385Z,98816.92
2018-01-18T18:03:48.847Z,98822.81
2018-01-18T18:06:16.318Z,98817.48
2018-01-18T18:08:43.778Z,98816.53
2018-01-18T18:11:11.231Z,98823.34
2018-01-18T18:13:38.730Z,98823.36
2018-01-18T18:16:06.192Z,98815.80
2018-01-18T18:18:33.658Z,98819.37
2018-01-18T18:21:01.118Z,98820.17
2018-01-18T18:23:28.586Z,98817.46
2018-01-18T18:25:56.048Z,98808.35
2018-01-18T18:28:23.747Z,98820.83
2018-01-18T18:30:51.202Z,98819.95
2018-01-18T18:33:18.688Z,98816.03
2018-01-18T18:35:46.151Z,98816.92
2018-01-18T18:38:13.636Z,98820.31
2018-01-18T18:40:41.096Z,98813.14
2018-01-18T18:43:08.575Z,98812.91
2018-01-18T18:45:36.028Z,98820.20
2018-01-18T18:48:03.503Z,98814.59
2018-01-18T18:50:30.954Z,98818.16
2018-01-18T18:52:58.433Z,98813.75
2018-01-18T18:55:25.879Z,98812.42
2018-01-18T18:57:53.365Z,98820.80
2018-01-18T19:00:20.819Z,98819.73
2018-01-18T19:02:48.295Z,98826.83
2018-01-18T19:05:15.748Z,98830.94
2018-01-18T19:07:43.222Z,98835.90
2018-01-18T19:10:10.672Z,98845.55
2018-01-18T19:12:38.139Z,98842.95
2018-01-18T19:15:05.590Z,98836.39
2018-01-18T19:17:33.067Z,98837.15
2018-01-18T19:20:00.523Z,98839.47
2018-01-18T19:22:27.998Z,98840.41
2018-01-18T19:24:55.448Z,98840.05
2018-01-18T19:27:22.924Z,98845.49
2018-01-18T19:29:50.410Z,98847.41
2018-01-18T19:32:17.878Z,98842.48
2018-01-18T19:34:45.348Z,98834.87
2018-01-18T19:37:12.794Z,98822.44
2018-01-18T19:39:40.271Z,98831.39
2018-01-18T19:42:07.757Z,98824.45
2018-01-18T19:44:35.232Z,98824.63
2018-01-18T19:47:02.686Z,98812.91
2018-01-18T19:49:30.155Z,98815.81
2018-01-18T19:51:57.607Z,98812.81
2018-01-18T19:54:25.083Z,98816.18
2018-01-18T19:56:52.554Z,98816.77
2018-01-18T19:59:20.019Z,98814.72
2018-01-18T20:01:47.482Z,98808.94
2018-01-18T20:04:15.943Z,98813.30
2018-01-18T20:06:43.390Z,98813.50
2018-01-18T20:09:10.859Z,98817.07
2018-01-18T20:11:38.307Z,98816.92
2018-01-18T20:14:05.790Z,98821.28
2018-01-18T20:16:33.254Z,98825.95
2018-01-18T20:19:00.732Z,98831.88
2018-01-18T20:21:28.195Z,98843.93
2018-01-18T20:23:55.688Z,98844.64
2018-01-18T20:26:23.147Z,98842.63
2018-01-18T20:28:50.638Z,98839.37
2018-01-18T20:31:18.092Z,98845.75
2018-01-18T20:33:45.680Z,98837.77
2018-01-18T20:36:16.746Z,98837.13
2018-01-18T20:38:44.223Z,98837.68
2018-01-18T20:41:11.675Z,98843.46
2018-01-18T20:43:39.149Z,98842.13
2018-01-18T20:46:06.606Z,98841.13
2018-01-18T20:48:36.086Z,98836.80
2018-01-18T20:51:03.545Z,98845.22
2018-01-18T20:53:31.023Z,98842.42
2018-01-18T20:55:58.491Z,98827.55
2018-01-18T20:58:25.947Z,98825.98
2018-01-18T21:00:53.431Z,98829.13
2018-01-18T21:03:20.892Z,98828.04
2018-01-18T21:05:48.367Z,98832.22
2018-01-18T21:08:15.823Z,98825.02
2018-01-18T21:10:43.297Z,98818.13
2018-01-18T21:13:10.747Z,98812.52
2018-01-18T21:15:38.232Z,98811.63
2018-01-18T21:18:05.723Z,98813.64
2018-01-18T21:20:33.174Z,98809.02
2018-01-18T21:23:00.646Z,98817.38
2018-01-18T21:25:28.104Z,98821.70
2018-01-18T21:27:55.642Z,98815.77
2018-01-18T21:30:23.118Z,98818.45
2018-01-18T21:32:50.601Z,98821.62
2018-01-18T21:35:18.054Z,98814.83
2018-01-18T21:37:45.498Z,98820.11
2018-01-18T21:40:13.019Z,98820.75
2018-01-18T21:42:40.472Z,98816.39
2018-01-18T21:45:07.946Z,98814.91
2018-01-18T21:47:35.403Z,98811.36
2018-01-18T21:50:02.874Z,98811.64
2018-01-18T21:52:30.328Z,98819.33
2018-01-18T21:54:57.807Z,98819.93
2018-01-18T21:57:25.263Z,98813.89
2018-01-18T21:59:52.743Z,98810.88
2018-01-18T22:02:20.202Z,98819.87
2018-01-18T22:04:47.699Z,98814.72
2018-01-18T22:07:15.164Z,98800.58
2018-01-18T22:09:42.654Z,98808.61
2018-01-18T22:12:10.135Z,98817.48
2018-01-18T22:14:37.616Z,98812.52
2018-01-18T22:17:05.074Z,98814.73
2018-01-18T22:19:32.546Z,98824.83
2018-01-18T22:22:00.006Z,98828.08
2018-01-18T22:24:27.483Z,98838.30
2018-01-18T22:26:54.935Z,98842.65
2018-01-18T22:29:22.414Z,98853.97
2018-01-18T22:31:49.876Z,98861.05
2018-01-18T22:34:17.347Z,98856.59
2018-01-18T22:36:44.833Z,98857.22
2018-01-18T22:39:12.284Z,98858.56
2018-01-18T22:41:39.758Z,98866.09
2018-01-18T22:44:07.218Z,98884.42
2018-01-18T22:46:34.703Z,98889.83
